Nearby METAR Reports

 

YMER - Merimbula Arpt, Australia
Distance from station: SE 12km
Updated: Sat, 20-Apr-2019 8:30pm AEST
Mostly cloudy
Mostly cloudy
 Wind from NNE
Wind: NNE 11 km/h
Temperature: 21°C
Dew Point: 19°C
Humidity: 88%
Barometer: 1024 hPa
Clouds: Mostly cloudy
Visibility: 10 km
Cloud details: Partly cloudy 396 m
Mostly cloudy 549 m
Mostly cloudy 701 m
2019/04/20 10:30 YMER 201030Z AUTO 03006KT 9999 // SCT013 BKN018 BKN023 21/19 Q1024
YCOM - Cooma Snowy Mtns, Australia
Distance from station: NW 96km
Updated: Sat, 20-Apr-2019 8:00pm AEST
Clear
Clear
 Wind from NNE
Wind: NNE 9 km/h
Temperature: 13°C
Dew Point: 13°C
Humidity: 100%
Barometer: 1026 hPa
Clouds: Clear
Visibility: 10 km
2019/04/20 10:00 YCOM 201000Z AUTO 03005KT 9999 // NCD 13/13 Q1026
 
YSCB - Canberra (civ/Mi, Australia
Distance from station: NNW 182km
Updated: Sat, 20-Apr-2019 8:30pm AEST
Clear
Clear
 Wind from NE
Wind: NE 9 km/h
Temperature: 19°C
Dew Point: 14°C
Humidity: 73%
Barometer: 1024 hPa
Clouds: Clear
Visibility: 10 km
2019/04/20 10:30 YSCB 201030Z AUTO 05005KT 9999 // NCD 19/14 Q1024 RF00.0/000.0
YSNW - Nowra (aus-Navy), Australia
Distance from station: NNE 219km
Updated: Sat, 20-Apr-2019 8:00pm AEST
Clear
Clear
 Wind from calm
Wind: Calm
Temperature: 17°C
Dew Point: 17°C
Humidity: 100%
Barometer: 1024 hPa
Clouds: Clear
Visibility: 10 km
2019/04/20 10:00 YSNW 201000Z AUTO 00000KT 9999 // NCD 17/17 Q1024
 
YMAY - Albury Airport, Australia
Distance from station: WNW 271km
Updated: Sat, 20-Apr-2019 8:00pm AEST
Clear
Clear
 Wind from calm
Wind: Calm
Temperature: 19°C
Dew Point: 10°C
Humidity: 56%
Barometer: 1021 hPa
Clouds: Clear
Visibility: 10 km
2019/04/20 10:00 YMAY 201000Z AUTO 00000KT 9999 // NCD 19/10 Q1021
YSWG - Wagga Wagga(Cv/M, Australia
Distance from station: NW 283km
Updated: Sat, 20-Apr-2019 8:00pm AEST
Clear
Clear
 Wind from E
Wind: E 11 km/h
Temperature: 22°C
Dew Point: 10°C
Humidity: 47%
Barometer: 1021 hPa
Clouds: Clear
Visibility: 10 km
2019/04/20 10:00 YSWG 201000Z AUTO 09006KT 9999 // NCD 22/10 Q1021
 
YWGT - Wangaratta Arp, Australia
Distance from station: W 317km
Updated: Sat, 20-Apr-2019 8:00pm AEST

 Wind from calm
Wind: Calm
Temperature: 16°C
Dew Point: 6°C
Humidity: 52%
Barometer: 1020 hPa
Visibility: 10 km
2019/04/20 10:00 YWGT 201000Z AUTO 00000KT 9999 // ////// 16/06 Q1020
YSSY - Sydney Intl Airp, Australia
Distance from station: NNE 343km
Updated: Sat, 20-Apr-2019 8:30pm AEST
Few Clouds
Few Clouds
 Wind from NE
Wind: NE 9 km/h
Temperature: 22°C
Dew Point: 19°C
Humidity: 83%
Barometer: 1024 hPa
Clouds: Few Clouds
Visibility: 10 km
Cloud details: Few Clouds 914 m
2019/04/20 10:30 YSSY 201030Z 04005KT 9999 FEW030 22/19 Q1024 NOSIG